Time;durP1;ratioP1;P1;durP2;ratioP2;P2;SDS_P1;SDS_P2;PMS_P1;PMS_P2;Temp;Humidity;BMP_temperature;BMP_pressure;BME280_temperature;BME280_humidity;BME280_pressure;Samples;Min_cycle;Max_cycle;Signal;HPM_P1;HPM_P2
2024/02/29 00:02:01;;;;;;;102.60;57.40;;;;;;;8.99;92.61;97077.75;108994;1271;22788;-74
2024/02/29 00:04:35;;;;;;;100.90;56.80;;;;;;;9.02;92.62;97075.63;108966;1265;24216;-75
2024/02/29 00:07:09;;;;;;;110.30;60.50;;;;;;;9.06;92.77;97076.27;109003;1271;24244;-74
2024/02/29 00:09:42;;;;;;;101.70;57.80;;;;;;;9.03;92.39;97078.68;108942;1271;23752;-74
2024/02/29 00:12:14;;;;;;;107.20;56.70;;;;;;;8.92;92.28;97080.48;108982;1265;22651;-74
2024/02/29 00:14:46;;;;;;;103.20;55.80;;;;;;;8.89;92.54;97079.83;109016;1265;22563;-74
2024/02/29 00:17:21;;;;;;;99.00;54.20;;;;;;;8.90;92.60;97080.52;108878;1265;164324;-74
2024/02/29 00:19:52;;;;;;;106.00;57.00;;;;;;;8.92;92.66;97081.58;108960;1265;23760;-74
2024/02/29 00:22:29;;;;;;;107.60;57.80;;;;;;;8.94;92.69;97082.17;108929;1271;23831;-74
2024/02/29 00:25:00;;;;;;;113.70;58.70;;;;;;;8.84;92.26;97084.55;108973;1268;22616;-74
2024/02/29 00:27:33;;;;;;;103.00;56.30;;;;;;;8.66;92.23;97084.73;109002;1271;22521;-74
2024/02/29 00:30:11;;;;;;;103.10;52.90;;;;;;;8.56;92.53;97087.41;108950;1271;25505;-74
2024/02/29 00:32:44;;;;;;;101.10;55.10;;;;;;;8.53;92.85;97086.34;109041;1253;22536;-74
2024/02/29 00:35:20;;;;;;;109.10;56.20;;;;;;;8.53;93.05;97090.09;108997;1271;23789;-74
2024/02/29 00:37:51;;;;;;;110.70;58.90;;;;;;;8.57;93.36;97089.00;109009;1271;22636;-74
2024/02/29 00:40:25;;;;;;;112.40;59.00;;;;;;;8.61;93.66;97083.39;108940;1271;22570;-74
2024/02/29 00:42:59;;;;;;;102.40;55.00;;;;;;;8.65;93.54;97080.88;108992;1271;22849;-74
2024/02/29 00:45:35;;;;;;;103.00;53.50;;;;;;;8.63;93.47;97081.24;108944;1265;25890;-74
2024/02/29 00:48:11;;;;;;;99.20;53.10;;;;;;;8.64;93.64;97078.70;108964;1250;22546;-74
2024/02/29 00:50:42;;;;;;;106.90;57.70;;;;;;;8.64;93.42;97079.77;108934;1270;25425;-74
2024/02/29 00:53:13;;;;;;;105.20;57.40;;;;;;;8.56;93.53;97078.73;108982;1271;22527;-74
2024/02/29 00:55:47;;;;;;;112.70;58.80;;;;;;;8.57;93.72;97080.06;108969;1271;23333;-74
2024/02/29 00:58:22;;;;;;;104.40;56.60;;;;;;;8.62;94.00;97079.02;108933;1271;23867;-74
2024/02/29 01:01:00;;;;;;;97.60;52.90;;;;;;;8.58;93.77;97082.27;108936;1268;22599;-74
2024/02/29 01:03:33;;;;;;;98.90;54.20;;;;;;;8.52;93.76;97080.63;108956;1271;23797;-74
2024/02/29 01:06:06;;;;;;;102.50;54.40;;;;;;;8.54;94.07;97078.89;108975;1265;22530;-74
2024/02/29 01:08:40;;;;;;;105.70;57.30;;;;;;;8.60;94.29;97074.35;108968;1271;22513;-74
2024/02/29 01:11:11;;;;;;;109.10;53.20;;;;;;;8.66;94.37;97074.80;108965;1271;22534;-74
2024/02/29 01:13:48;;;;;;;102.40;53.80;;;;;;;8.66;94.26;97071.33;108962;1268;22517;-74
2024/02/29 01:16:19;;;;;;;98.90;50.50;;;;;;;8.58;94.18;97072.96;108967;1268;22538;-74
2024/02/29 01:19:00;;;;;;;93.90;50.00;;;;;;;8.50;93.94;97074.54;108903;1264;22532;-74
2024/02/29 01:21:32;;;;;;;102.20;53.30;;;;;;;8.30;93.67;97072.09;108950;1271;22533;-74
2024/02/29 01:24:05;;;;;;;92.90;49.60;;;;;;;8.17;94.02;97068.90;108997;1265;22524;-74
2024/02/29 01:26:38;;;;;;;97.10;49.40;;;;;;;8.14;94.47;97072.03;108990;1265;23871;-74
2024/02/29 01:29:12;;;;;;;106.10;54.70;;;;;;;8.10;94.63;97069.27;109004;1271;25244;-74
2024/02/29 01:31:55;;;;;;;95.60;51.60;;;;;;;8.03;94.91;97070.48;108939;1266;22549;-73
2024/02/29 01:34:26;;;;;;;98.80;53.50;;;;;;;8.03;95.18;97070.05;108869;1252;22531;-74
2024/02/29 01:36:59;;;;;;;90.30;50.40;;;;;;;8.06;95.59;97070.98;108892;1267;22539;-73
2024/02/29 01:39:33;;;;;;;66.20;39.50;;;;;;;8.07;95.86;97069.30;108889;1270;22558;-74
2024/02/29 01:42:07;;;;;;;58.60;34.10;;;;;;;8.09;95.79;97077.06;108938;1272;22566;-74
2024/02/29 01:44:55;;;;;;;66.00;35.40;;;;;;;8.05;95.74;97073.14;108892;1272;25424;-74
2024/02/29 01:47:31;;;;;;;;;;;;;;;8.01;95.69;97075.98;108906;1272;22501;-74
2024/02/29 01:50:06;;;;;;;52.10;28.40;;;;;;;8.00;95.90;97074.76;108829;1272;22533;-74
2024/02/29 01:52:42;;;;;;;50.00;27.20;;;;;;;7.99;95.77;97071.63;108853;1268;23819;-73
2024/02/29 01:55:14;;;;;;;43.80;24.60;;;;;;;8.00;95.86;97072.44;108820;1272;22527;-74
2024/02/29 01:57:48;;;;;;;42.30;23.50;;;;;;;8.00;95.96;97067.15;108936;1272;22551;-74
2024/02/29 02:00:23;;;;;;;45.60;24.00;;;;;;;7.96;95.73;97072.14;108832;1265;22513;-74
2024/02/29 02:03:00;;;;;;;50.00;26.20;;;;;;;7.94;95.88;97074.08;108837;1272;22521;-74
2024/02/29 02:05:33;;;;;;;47.70;25.10;;;;;;;7.92;95.83;97075.70;108936;1272;22532;-74
2024/02/29 02:08:04;;;;;;;51.70;27.50;;;;;;;7.91;95.79;97078.60;108837;1272;22529;-74
2024/02/29 02:10:35;;;;;;;44.00;23.70;;;;;;;7.88;95.95;97079.71;108843;1267;22514;-74
2024/02/29 02:13:07;;;;;;;44.30;25.00;;;;;;;7.89;96.05;97081.41;108866;1272;22523;-74
2024/02/29 02:15:41;;;;;;;38.60;23.20;;;;;;;7.90;96.08;97081.06;108929;1269;22638;-74
2024/02/29 02:18:12;;;;;;;41.00;23.20;;;;;;;7.89;96.06;97078.48;108893;1267;22524;-74
2024/02/29 02:20:43;;;;;;;43.20;24.80;;;;;;;7.89;96.07;97080.33;108861;1267;22577;-74
2024/02/29 02:23:19;;;;;;;34.00;19.50;;;;;;;7.87;95.99;97075.05;108875;1268;23701;-74
2024/02/29 02:25:57;;;;;;;27.80;16.20;;;;;;;7.84;95.78;97070.59;108869;1270;22565;-74
2024/02/29 02:28:30;;;;;;;40.80;20.40;;;;;;;7.75;95.75;97072.67;108885;1272;22538;-74
2024/02/29 02:31:05;;;;;;;34.30;20.40;;;;;;;7.67;95.96;97068.95;108887;1267;24215;-74
2024/02/29 02:33:39;;;;;;;41.00;23.90;;;;;;;7.68;96.25;97066.32;108913;1272;22876;-74
2024/02/29 02:36:17;;;;;;;37.40;21.60;;;;;;;7.66;96.33;97065.51;108876;1266;22603;-74
2024/02/29 02:38:56;;;;;;;32.90;18.80;;;;;;;7.64;96.22;97065.85;108877;1272;22615;-74
2024/02/29 02:41:29;;;;;;;31.10;18.10;;;;;;;7.63;96.47;97063.69;108851;1272;22741;-75
2024/02/29 02:44:02;;;;;;;33.30;19.20;;;;;;;7.62;96.46;97061.00;108865;1272;22571;-74
2024/02/29 02:46:35;;;;;;;29.90;16.40;;;;;;;7.60;96.55;97061.87;108860;1265;22549;-75
2024/02/29 02:49:09;;;;;;;31.30;18.50;;;;;;;7.62;96.64;97059.88;108822;1272;23750;-74
2024/02/29 02:51:40;;;;;;;32.40;19.40;;;;;;;7.64;96.76;97062.54;108859;1269;22521;-74
2024/02/29 02:54:13;;;;;;;34.20;18.50;;;;;;;7.66;97.14;97064.56;108883;1272;23801;-74
2024/02/29 02:56:49;;;;;;;29.60;17.60;;;;;;;7.69;97.07;97063.27;108817;1265;22742;-74
2024/02/29 02:59:22;;;;;;;31.90;18.20;;;;;;;7.69;96.93;97062.00;108832;1265;23824;-74
2024/02/29 03:01:54;;;;;;;31.80;17.80;;;;;;;7.70;96.96;97061.91;108817;1266;25428;-74
2024/02/29 03:04:25;;;;;;;33.90;20.50;;;;;;;7.73;97.03;97062.73;108811;1269;23495;-74
2024/02/29 03:06:59;;;;;;;30.10;19.00;;;;;;;7.78;97.24;97061.46;108902;1268;22517;-74
2024/02/29 03:09:33;;;;;;;33.80;20.70;;;;;;;7.82;97.24;97061.55;108858;1265;23982;-74
2024/02/29 03:12:05;;;;;;;30.80;18.80;;;;;;;7.86;97.36;97064.54;108848;1268;22553;-74
2024/02/29 03:14:38;;;;;;;31.30;18.80;;;;;;;7.89;97.32;97064.90;108798;1272;22498;-74
2024/02/29 03:17:09;;;;;;;29.70;17.50;;;;;;;7.91;97.28;97065.14;108878;1272;22537;-74
2024/02/29 03:19:43;;;;;;;30.90;18.30;;;;;;;7.85;96.84;97064.22;108844;1268;22547;-74
2024/02/29 03:22:14;;;;;;;28.30;15.70;;;;;;;7.81;96.93;97064.82;108898;1270;22647;-75
2024/02/29 03:24:46;;;;;;;27.00;16.30;;;;;;;7.80;96.99;97064.60;108852;1249;22521;-75
2024/02/29 03:27:20;;;;;;;24.10;15.30;;;;;;;7.81;97.16;97066.73;108864;1272;25417;-75
2024/02/29 03:29:52;;;;;;;31.80;17.90;;;;;;;7.74;96.78;97065.96;108894;1272;25279;-75
2024/02/29 03:32:24;;;;;;;32.10;17.60;;;;;;;7.66;96.86;97065.14;108901;1272;22520;-75
2024/02/29 03:34:56;;;;;;;30.30;18.30;;;;;;;7.68;97.43;97065.11;108894;1272;22518;-74
2024/02/29 03:37:29;;;;;;;28.30;17.50;;;;;;;7.71;97.51;97062.44;108889;1272;24223;-74
2024/02/29 03:40:07;;;;;;;33.60;19.40;;;;;;;7.77;97.54;97066.46;108810;1267;22532;-75
2024/02/29 03:42:39;;;;;;;32.30;19.50;;;;;;;7.82;97.66;97069.27;108919;1271;25956;-75
2024/02/29 03:45:11;;;;;;;30.70;17.90;;;;;;;7.84;97.65;97067.27;108862;1273;22528;-75
2024/02/29 03:47:42;;;;;;;29.60;17.80;;;;;;;7.89;97.69;97065.96;108878;1272;24310;-74
2024/02/29 03:50:17;;;;;;;30.30;18.90;;;;;;;7.91;97.44;97064.02;108804;1269;22524;-75
2024/02/29 03:52:49;;;;;;;28.70;17.40;;;;;;;7.80;97.02;97061.80;108878;1268;23960;-74
2024/02/29 03:55:21;;;;;;;31.50;19.20;;;;;;;7.75;97.32;97069.67;108907;1268;22552;-74
2024/02/29 03:58:06;;;;;;;32.80;18.70;;;;;;;7.78;97.65;97068.65;108876;1272;23707;-74
2024/02/29 04:00:44;;;;;;;30.30;18.30;;;;;;;7.79;97.49;97066.33;108858;1272;22809;-74
2024/02/29 04:03:15;;;;;;;32.00;18.30;;;;;;;7.80;97.70;97066.23;108896;1270;22543;-74
2024/02/29 04:05:47;;;;;;;29.90;16.80;;;;;;;7.82;97.63;97068.46;108882;1249;22526;-74
2024/02/29 04:08:20;;;;;;;28.50;17.10;;;;;;;7.84;97.81;97067.00;108886;1267;25501;-74
2024/02/29 04:10:55;;;;;;;28.80;17.90;;;;;;;7.88;97.98;97065.88;108828;1272;22660;-75
2024/02/29 04:13:26;;;;;;;34.00;19.30;;;;;;;7.90;97.88;97061.48;108865;1267;22540;-75
2024/02/29 04:15:57;;;;;;;31.80;18.70;;;;;;;7.86;97.65;97061.70;108868;1267;23415;-75
2024/02/29 04:18:34;;;;;;;28.00;17.10;;;;;;;7.78;97.57;97054.92;108853;1272;22534;-75
2024/02/29 04:21:05;;;;;;;29.50;18.70;;;;;;;7.73;97.71;97053.23;108866;1271;25960;-75
2024/02/29 04:23:37;;;;;;;28.60;17.20;;;;;;;7.71;97.78;97052.56;108874;1261;22530;-75
2024/02/29 04:26:11;;;;;;;30.50;18.10;;;;;;;7.70;98.02;97055.41;108888;1272;25428;-74
2024/02/29 04:28:42;;;;;;;27.90;18.00;;;;;;;7.72;98.22;97059.34;108853;1272;22517;-75
2024/02/29 04:31:13;;;;;;;29.80;18.60;;;;;;;7.76;98.29;97055.22;108826;1268;29270;-75
2024/02/29 04:33:45;;;;;;;31.40;18.70;;;;;;;7.77;98.18;97053.42;108891;1273;22520;-75
2024/02/29 04:36:19;;;;;;;33.30;19.20;;;;;;;7.71;98.13;97048.19;108866;1270;22701;-74
2024/02/29 04:38:51;;;;;;;30.10;17.80;;;;;;;7.68;98.29;97045.48;108845;1272;22519;-75
2024/02/29 04:41:22;;;;;;;25.60;16.70;;;;;;;7.69;98.57;97048.23;108832;1268;22544;-74
2024/02/29 04:43:57;;;;;;;24.50;16.50;;;;;;;7.72;98.62;97047.56;108863;1267;24228;-74
2024/02/29 04:46:28;;;;;;;28.00;16.90;;;;;;;7.72;98.34;97046.45;108831;1273;22544;-74
2024/02/29 04:49:02;;;;;;;25.00;16.70;;;;;;;7.69;98.34;97047.65;108919;1272;25029;-74
2024/02/29 04:51:37;;;;;;;24.80;16.60;;;;;;;7.69;98.66;97049.45;108887;1268;22527;-74
2024/02/29 04:54:08;;;;;;;28.40;18.80;;;;;;;7.73;98.86;97046.45;108866;1267;22527;-74
2024/02/29 04:56:42;;;;;;;25.90;16.60;;;;;;;7.75;98.76;97045.96;108815;1272;22523;-74
2024/02/29 04:59:18;;;;;;;25.30;16.90;;;;;;;7.75;98.64;97045.72;108842;1268;22630;-74
2024/02/29 05:01:51;;;;;;;24.70;16.20;;;;;;;7.75;98.61;97043.65;108873;1270;24312;-74
2024/02/29 05:04:32;;;;;;;23.00;15.80;;;;;;;7.74;98.66;97040.91;108831;1250;22530;-74
2024/02/29 05:07:08;;;;;;;25.70;17.10;;;;;;;7.76;98.79;97043.87;108890;1265;23869;-74
2024/02/29 05:09:39;;;;;;;24.50;16.80;;;;;;;7.78;99.04;97041.09;108828;1270;24183;-74
2024/02/29 05:12:13;;;;;;;26.80;17.60;;;;;;;7.78;98.84;97044.47;108849;1272;22542;-75
2024/02/29 05:14:48;;;;;;;29.00;17.80;;;;;;;7.75;98.78;97043.23;108858;1272;22522;-75
2024/02/29 05:17:19;;;;;;;25.30;16.60;;;;;;;7.72;98.87;97039.13;108899;1264;22541;-74
2024/02/29 05:19:56;;;;;;;27.20;18.00;;;;;;;7.71;98.92;97042.65;108845;1273;22567;-75
2024/02/29 05:22:29;;;;;;;26.40;16.00;;;;;;;7.70;98.94;97048.02;108890;1272;24181;-75
2024/02/29 05:25:00;;;;;;;26.60;16.60;;;;;;;7.71;98.93;97049.14;108900;1272;22530;-75
2024/02/29 05:27:33;;;;;;;26.20;17.00;;;;;;;7.68;99.00;97054.28;108873;1272;22521;-75
2024/02/29 05:30:09;;;;;;;27.90;17.10;;;;;;;7.68;99.19;97054.60;108804;1265;22528;-75
2024/02/29 05:32:40;;;;;;;26.80;16.40;;;;;;;7.69;99.12;97052.92;108879;1272;22530;-75
2024/02/29 05:35:18;;;;;;;32.10;18.30;;;;;;;7.71;99.32;97059.02;108928;1270;22558;-74
2024/02/29 05:37:48;;;;;;;26.00;16.20;;;;;;;7.74;99.43;97056.20;108840;1272;22536;-74
2024/02/29 05:40:27;;;;;;;24.00;14.80;;;;;;;7.74;99.35;97053.49;108839;1268;22542;-74
2024/02/29 05:42:58;;;;;;;30.00;17.10;;;;;;;7.73;99.43;97055.34;108915;1272;24227;-74
2024/02/29 05:45:30;;;;;;;31.40;16.70;;;;;;;7.73;99.46;97055.13;108813;1270;22530;-74
2024/02/29 05:48:04;;;;;;;35.90;19.10;;;;;;;7.73;99.55;97056.15;108911;1271;25292;-74
2024/02/29 05:50:35;;;;;;;33.60;17.40;;;;;;;7.71;99.31;97061.02;108804;1265;22543;-74
2024/02/29 05:53:06;;;;;;;36.10;17.30;;;;;;;7.68;99.35;97058.09;108876;1272;22650;-74
2024/02/29 05:55:40;;;;;;;35.30;18.60;;;;;;;7.69;99.43;97059.62;108840;1272;22615;-74
2024/02/29 05:58:11;;;;;;;35.20;19.10;;;;;;;7.68;99.56;97059.30;108826;1272;23971;-74
2024/02/29 06:00:43;;;;;;;39.60;20.30;;;;;;;7.68;99.37;97062.52;108833;1272;22532;-74
2024/02/29 06:03:18;;;;;;;37.90;21.40;;;;;;;7.67;99.45;97061.45;108881;1272;23604;-74
2024/02/29 06:05:51;;;;;;;42.60;22.50;;;;;;;7.65;99.43;97063.08;108832;1268;22539;-74
2024/02/29 06:08:22;;;;;;;39.30;20.80;;;;;;;7.67;99.62;97065.73;108858;1270;22524;-74
2024/02/29 06:10:55;;;;;;;34.30;20.30;;;;;;;7.66;99.53;97065.35;108808;1273;22548;-74
2024/02/29 06:13:30;;;;;;;39.50;20.50;;;;;;;7.65;99.54;97067.98;108854;1272;22526;-74
2024/02/29 06:16:03;;;;;;;37.20;20.50;;;;;;;7.67;99.69;97065.41;108834;1272;22517;-74
2024/02/29 06:18:37;;;;;;;39.60;22.80;;;;;;;7.68;99.62;97065.80;108846;1272;22539;-74
2024/02/29 06:21:08;;;;;;;39.40;23.40;;;;;;;7.71;99.75;97071.73;108820;1273;22520;-74
2024/02/29 06:23:47;;;;;;;42.90;24.40;;;;;;;7.75;99.91;97069.35;108892;1272;22821;-74
2024/02/29 06:26:19;;;;;;;45.50;24.10;;;;;;;7.79;99.94;97070.45;108832;1273;22599;-74
2024/02/29 06:28:50;;;;;;;41.10;23.00;;;;;;;7.81;99.93;97066.41;108856;1273;22661;-74
2024/02/29 06:31:25;;;;;;;38.20;22.00;;;;;;;7.83;99.93;97067.20;108830;1273;24684;-74
2024/02/29 06:33:58;;;;;;;40.20;22.20;;;;;;;7.84;99.85;97066.21;108882;1272;22478;-74
2024/02/29 06:36:32;;;;;;;35.10;20.80;;;;;;;7.85;99.93;97065.95;108853;1270;22571;-74
2024/02/29 06:39:07;;;;;;;38.40;23.10;;;;;;;7.88;99.92;97062.34;108863;1272;22646;-74
2024/02/29 06:41:44;;;;;;;40.40;22.70;;;;;;;7.90;99.91;97064.60;108809;1273;22527;-74
2024/02/29 06:44:22;;;;;;;41.30;23.10;;;;;;;7.94;99.98;97063.95;108880;1272;22516;-73
2024/02/29 06:46:54;;;;;;;37.50;22.30;;;;;;;7.94;99.82;97070.27;108831;1250;25512;-72
2024/02/29 06:49:28;;;;;;;35.60;20.80;;;;;;;7.93;99.67;97068.20;108907;1272;22766;-72
2024/02/29 06:51:59;;;;;;;34.30;20.70;;;;;;;7.94;99.74;97071.17;108878;1268;22527;-73
2024/02/29 06:54:32;;;;;;;36.80;20.60;;;;;;;8.00;99.96;97066.52;108854;1265;22527;-73
2024/02/29 06:57:06;;;;;;;38.40;22.20;;;;;;;8.04;99.95;97071.06;108848;1263;22615;-73
2024/02/29 06:59:39;;;;;;;37.40;20.70;;;;;;;8.08;99.86;97066.08;108829;1268;23961;-72
2024/02/29 07:02:11;;;;;;;37.70;21.90;;;;;;;8.09;99.89;97066.56;108977;1267;22521;-72
2024/02/29 07:04:47;;;;;;;37.60;20.30;;;;;;;8.09;99.79;97065.77;109036;1264;24317;-72
2024/02/29 07:07:25;;;;;;;35.30;19.90;;;;;;;8.12;99.92;97064.46;109005;1266;22578;-73
2024/02/29 07:09:57;;;;;;;32.40;19.00;;;;;;;8.17;99.92;97061.41;109025;1265;22690;-72
2024/02/29 07:12:33;;;;;;;32.10;19.50;;;;;;;8.21;99.94;97058.33;108864;1265;22522;-72
2024/02/29 07:15:07;;;;;;;35.10;19.90;;;;;;;8.23;99.97;97052.58;108912;1268;24345;-72
2024/02/29 07:17:44;;;;;;;33.80;19.80;;;;;;;8.24;99.89;97053.38;108941;1265;22584;-73
2024/02/29 07:20:16;;;;;;;36.50;20.80;;;;;;;8.22;99.72;97053.27;108869;1266;22499;-72
2024/02/29 07:22:51;;;;;;;32.20;18.20;;;;;;;8.16;99.62;97053.95;109083;1265;22539;-73
2024/02/29 07:25:25;;;;;;;31.60;17.70;;;;;;;8.08;99.37;97055.20;108908;1268;24078;-72
2024/02/29 07:27:58;;;;;;;34.30;19.70;;;;;;;8.02;99.44;97058.31;108894;1266;22572;-73
2024/02/29 07:30:33;;;;;;;33.30;19.20;;;;;;;8.03;99.74;97058.05;108925;1266;22520;-72
2024/02/29 07:33:07;;;;;;;36.80;20.90;;;;;;;8.02;99.73;97055.52;108881;1268;23886;-73
2024/02/29 07:35:38;;;;;;;36.60;21.40;;;;;;;8.04;99.91;97052.27;108886;1271;24620;-73
2024/02/29 07:38:14;;;;;;;34.20;20.20;;;;;;;8.03;99.94;97055.95;108957;1267;22471;-72
2024/02/29 07:40:47;;;;;;;34.00;20.70;;;;;;;7.98;99.62;97055.41;108893;1265;24238;-73
2024/02/29 07:43:18;;;;;;;30.70;18.70;;;;;;;7.90;99.57;97050.29;108906;1272;22523;-72
2024/02/29 07:45:52;;;;;;;34.00;19.80;;;;;;;7.88;99.82;97052.84;108894;1272;22533;-73
2024/02/29 07:48:26;;;;;;;35.40;20.40;;;;;;;7.91;100.00;97049.25;108905;1271;22513;-73
2024/02/29 07:51:01;;;;;;;35.60;18.90;;;;;;;8.02;100.00;97049.80;108894;1258;22524;-73
2024/02/29 07:53:44;;;;;;;38.50;21.30;;;;;;;8.11;100.00;97050.05;108935;1272;23867;-72
2024/02/29 07:56:31;;;;;;;38.20;20.80;;;;;;;8.17;100.00;97049.27;108834;1268;22522;-73
2024/02/29 07:59:12;;;;;;;39.20;22.10;;;;;;;8.19;100.00;97046.27;108870;1259;22826;-73
2024/02/29 08:01:49;;;;;;;31.50;18.70;;;;;;;8.16;100.00;97044.23;108913;1271;22607;-73
2024/02/29 08:04:23;;;;;;;38.90;19.30;;;;;;;8.09;99.96;97042.32;108875;1266;24261;-73
2024/02/29 08:06:57;;;;;;;32.50;18.10;;;;;;;7.99;99.95;97041.16;108931;1271;22581;-73
2024/02/29 08:09:29;;;;;;;31.60;17.90;;;;;;;7.92;100.00;97039.38;108903;1268;23818;-73
2024/02/29 08:12:03;;;;;;;34.90;18.90;;;;;;;7.92;100.00;97036.84;108989;1271;22531;-73
2024/02/29 08:14:35;;;;;;;32.90;19.00;;;;;;;7.89;100.00;97031.48;108924;1268;22714;-73
2024/02/29 08:17:13;;;;;;;36.30;19.00;;;;;;;7.91;100.00;97032.94;108875;1271;22534;-73
2024/02/29 08:19:47;;;;;;;30.40;16.70;;;;;;;7.99;100.00;97034.16;108898;1266;25981;-73
2024/02/29 08:22:23;;;;;;;35.30;19.00;;;;;;;8.16;100.00;97028.22;109021;1271;23825;-73
2024/02/29 08:24:57;;;;;;;31.50;18.20;;;;;;;8.32;100.00;97027.04;108883;1271;24163;-73
2024/02/29 08:27:33;;;;;;;37.40;19.50;;;;;;;8.47;100.00;97023.20;108929;1271;22494;-73
2024/02/29 08:30:23;;;;;;;38.00;20.60;;;;;;;8.58;100.00;97023.53;108874;1268;23172;-73
2024/02/29 08:32:57;;;;;;;39.70;22.10;;;;;;;8.66;100.00;97027.61;108975;1255;22560;-73
2024/02/29 08:35:31;;;;;;;41.00;22.20;;;;;;;8.68;100.00;97031.48;108950;1249;23868;-73
2024/02/29 08:38:08;;;;;;;36.70;22.20;;;;;;;8.68;100.00;97027.98;108939;1266;22531;-73
2024/02/29 08:40:39;;;;;;;37.60;21.70;;;;;;;8.70;100.00;97025.98;108914;1271;22522;-73
2024/02/29 08:43:19;;;;;;;40.60;23.40;;;;;;;8.77;100.00;97031.95;108903;1268;23169;-73
2024/02/29 08:45:53;;;;;;;40.40;23.30;;;;;;;8.83;100.00;97028.75;108852;1268;22546;-73
2024/02/29 08:48:28;;;;;;;45.30;25.10;;;;;;;8.82;100.00;97023.83;108840;1271;22531;-73
2024/02/29 08:50:59;;;;;;;43.30;24.90;;;;;;;8.79;100.00;97023.70;108845;1268;22535;-73
2024/02/29 08:53:33;;;;;;;42.70;25.10;;;;;;;8.81;100.00;97019.02;108912;1271;22546;-73
2024/02/29 08:56:07;;;;;;;45.80;26.00;;;;;;;8.87;100.00;97020.17;108897;1248;22525;-73
2024/02/29 08:58:43;;;;;;;43.00;25.10;;;;;;;8.85;100.00;97015.75;108894;1271;23802;-73
2024/02/29 09:01:17;;;;;;;47.50;24.00;;;;;;;8.89;100.00;97021.02;108911;1268;23885;-73
2024/02/29 09:03:50;;;;;;;42.40;25.60;;;;;;;8.98;100.00;97024.02;108872;1267;22527;-73
2024/02/29 09:06:28;;;;;;;44.20;25.30;;;;;;;9.07;100.00;97020.63;108928;1271;23968;-73
2024/02/29 09:09:03;;;;;;;45.20;26.20;;;;;;;9.16;100.00;97020.30;108858;1271;22907;-74
2024/02/29 09:11:38;;;;;;;44.70;26.40;;;;;;;9.26;100.00;97019.91;108790;1271;23013;-74
2024/02/29 09:14:12;;;;;;;48.20;25.50;;;;;;;9.32;100.00;97016.18;108868;1265;22631;-73
2024/02/29 09:16:43;;;;;;;43.70;26.00;;;;;;;9.35;100.00;97014.91;108821;1270;24199;-74
2024/02/29 09:19:15;;;;;;;42.40;25.80;;;;;;;9.46;100.00;97012.25;108921;1270;24180;-73
2024/02/29 09:21:49;;;;;;;38.90;24.90;;;;;;;9.57;100.00;97011.21;108942;1266;22528;-73
2024/02/29 09:24:25;;;;;;;45.20;27.90;;;;;;;9.72;100.00;97011.56;108970;1271;22564;-73
2024/02/29 09:27:03;;;;;;;46.80;28.30;;;;;;;9.86;100.00;97004.54;108973;1272;22519;-73
2024/02/29 09:29:35;;;;;;;46.00;28.80;;;;;;;9.96;100.00;97005.92;107151;1266;2291839;-73
2024/02/29 09:32:06;;;;;;;45.90;27.50;;;;;;;9.95;100.00;96999.03;108952;1271;22601;-73
2024/02/29 09:34:47;;;;;;;45.20;26.30;;;;;;;10.02;100.00;96992.70;108991;1266;22589;-73
2024/02/29 09:37:24;;;;;;;42.50;28.30;;;;;;;10.15;100.00;96985.64;108976;1268;22529;-73
2024/02/29 09:39:58;;;;;;;42.80;27.40;;;;;;;10.31;100.00;96987.09;108923;1268;23848;-73
2024/02/29 09:42:31;;;;;;;40.40;28.00;;;;;;;10.35;100.00;96990.42;108995;1266;22533;-73
2024/02/29 09:45:05;;;;;;;42.60;27.70;;;;;;;10.35;100.00;96991.21;108975;1272;23306;-73
2024/02/29 09:47:39;;;;;;;45.90;29.20;;;;;;;10.32;100.00;96989.16;109021;1272;22567;-74
2024/02/29 09:50:16;;;;;;;44.00;29.10;;;;;;;10.32;99.92;96990.27;109116;1271;22519;-73
2024/02/29 09:52:50;;;;;;;43.60;29.70;;;;;;;10.28;99.89;96989.95;109000;1271;22536;-73
2024/02/29 09:55:23;;;;;;;39.40;26.90;;;;;;;10.37;100.00;96987.60;109035;1271;25895;-73
2024/02/29 09:57:59;;;;;;;41.50;26.00;;;;;;;10.45;99.97;96979.50;109015;1266;22683;-73
2024/02/29 10:00:32;;;;;;;40.20;28.00;;;;;;;10.53;100.00;96978.73;108931;1271;38451;-73
2024/02/29 10:03:04;;;;;;;42.20;28.90;;;;;;;10.50;99.49;96977.36;108878;1272;22839;-73
2024/02/29 10:05:35;;;;;;;43.10;30.10;;;;;;;10.33;99.01;96980.20;108896;1272;22517;-73
2024/02/29 10:08:13;;;;;;;38.40;27.20;;;;;;;10.34;99.37;96985.76;108872;1272;22542;-73
2024/02/29 10:10:47;;;;;;;38.20;26.50;;;;;;;10.41;99.60;96980.97;108934;1265;22576;-72
2024/02/29 10:13:22;;;;;;;37.70;25.30;;;;;;;10.46;99.52;96982.25;108872;1265;23853;-73
2024/02/29 10:15:55;;;;;;;39.90;27.40;;;;;;;10.46;99.27;96980.50;108882;1268;22524;-72
2024/02/29 10:18:35;;;;;;;42.80;28.40;;;;;;;10.35;98.87;96977.81;108857;1267;23953;-73
2024/02/29 10:21:13;;;;;;;38.30;26.70;;;;;;;10.41;99.36;96976.25;108863;1272;22520;-73
2024/02/29 10:23:49;;;;;;;41.00;26.80;;;;;;;10.51;99.21;96975.71;108852;1267;22524;-73
2024/02/29 10:26:25;;;;;;;39.40;26.30;;;;;;;10.54;99.00;96971.83;108886;1268;22615;-73
2024/02/29 10:29:06;;;;;;;42.30;29.10;;;;;;;10.43;98.36;96968.36;108853;1249;22550;-73
2024/02/29 10:31:38;;;;;;;39.30;28.50;;;;;;;10.46;98.75;96966.30;108869;1272;23039;-72
2024/02/29 10:34:19;;;;;;;44.00;29.40;;;;;;;10.57;99.08;96963.24;108930;1268;22578;-73
2024/02/29 10:36:55;;;;;;;42.30;28.80;;;;;;;10.71;99.20;96961.30;108950;1268;22549;-73
2024/02/29 10:39:28;;;;;;;38.60;27.10;;;;;;;10.79;99.11;96956.64;108872;1265;23053;-73
2024/02/29 10:42:05;;;;;;;34.60;25.40;;;;;;;10.84;98.73;96951.80;108868;1271;22608;-72
2024/02/29 10:44:46;;;;;;;37.70;27.90;;;;;;;10.90;98.52;96947.28;108925;1271;24221;-73
2024/02/29 10:47:20;;;;;;;38.90;27.20;;;;;;;10.99;98.48;96944.64;108882;1272;23238;-72
2024/02/29 10:50:04;;;;;;;38.80;27.10;;;;;;;11.13;98.50;96938.90;108938;1271;22524;-73
2024/02/29 10:52:39;;;;;;;38.30;26.90;;;;;;;11.26;98.14;96936.38;108966;1271;22524;-73
2024/02/29 10:55:20;;;;;;;38.30;27.70;;;;;;;11.41;97.95;96932.00;108879;1270;22630;-73
2024/02/29 10:58:01;;;;;;;37.50;26.40;;;;;;;11.48;97.41;96926.96;108893;1268;25406;-72
2024/02/29 11:00:33;;;;;;;36.30;25.80;;;;;;;11.54;97.14;96928.10;108902;1271;22602;-73
2024/02/29 11:03:06;;;;;;;36.50;26.70;;;;;;;11.63;97.07;96922.83;108894;1270;24176;-73
2024/02/29 11:05:39;;;;;;;38.00;28.50;;;;;;;11.71;96.90;96919.52;108887;1268;22519;-72
2024/02/29 11:08:10;;;;;;;39.40;28.10;;;;;;;11.76;96.59;96915.55;108869;1265;24186;-73
2024/02/29 11:10:46;;;;;;;38.50;29.00;;;;;;;11.73;96.26;96911.45;108890;1271;24331;-73
2024/02/29 11:13:22;;;;;;;36.90;25.30;;;;;;;11.80;96.37;96907.09;108883;1266;25425;-73
2024/02/29 11:16:01;;;;;;;34.70;24.70;;;;;;;11.87;96.27;96907.80;108939;1271;22533;-73
2024/02/29 11:18:37;;;;;;;36.70;25.60;;;;;;;11.93;95.98;96908.48;108934;1268;25330;-73
2024/02/29 11:21:12;;;;;;;44.40;29.30;;;;;;;12.01;95.84;96904.80;108880;1270;22519;-74
2024/02/29 11:23:53;;;;;;;40.50;29.40;;;;;;;12.10;95.48;96898.03;108925;1268;25368;-73
2024/02/29 11:26:33;;;;;;;41.60;28.70;;;;;;;12.14;95.17;96893.30;108918;1270;25295;-73
2024/02/29 11:29:19;;;;;;;37.00;25.60;;;;;;;12.19;94.81;96893.04;108890;1271;23459;-74
2024/02/29 11:31:58;;;;;;;30.90;24.00;;;;;;;12.17;94.14;96894.02;108941;1272;22516;-74
2024/02/29 11:34:32;;;;;;;33.00;23.00;;;;;;;12.25;94.21;96892.83;108954;1266;22542;-74
2024/02/29 11:37:07;;;;;;;35.90;25.70;;;;;;;12.30;93.84;96894.74;108942;1266;22539;-74
2024/02/29 11:39:43;;;;;;;35.70;26.50;;;;;;;12.38;94.16;96886.68;108881;1266;24296;-73
2024/02/29 11:42:15;;;;;;;37.80;26.90;;;;;;;12.53;93.74;96878.86;108924;1268;22634;-73
2024/02/29 11:44:49;;;;;;;36.10;27.50;;;;;;;12.62;93.19;96874.12;108924;1272;22640;-74
2024/02/29 11:47:27;;;;;;;30.80;23.70;;;;;;;12.77;93.32;96877.20;108967;1266;22538;-74